Taikeimaru No.5 — JI3607 — position and weather

sailwx.info

Track history (hours):
 
Tides and Currents Weather Stations Pressure Air Temp Water Temp Dewpoint Dewpoint Depression Visibility Wind Speed Wind Dir Waves Ship Positions

Taikeimaru No.5

Last reported at 2018-Apr-23 12:14 UTC. Time now 2018-Apr-25 06:39 UTC.
Position N 34°27' E 134°03'.

Length 77 m; draft 5 m.

Type: Tanker. MMSI: 431300411.

Date/timePositionNaut miles runAvg speedWind from/ knotsBaromVisibWave heightAir tempDewpointWater temp
2018-Apr-23 12:14N 34°27' E 134°03'1410.9
2018-Apr-23 10:57N 34°25' E 134°20'611.9
2018-Apr-23 10:24N 34°27' E 134°28'411.2
2018-Apr-23 10:01N 34°29' E 134°33'611.6
2018-Apr-23 09:30N 34°31' E 134°40'611.8
2018-Apr-23 09:00N 34°33' E 134°46'611.9
2018-Apr-23 08:30N 34°36' E 134°53'611.5
2018-Apr-23 08:00N 34°38' E 134°59'510.8
2018-Apr-23 07:30N 34°36' E 135°06'3 6.2
2018-Apr-23 07:00N 34°39' E 135°08'0 0.0
2018-Apr-23 06:31N 34°39' E 135°08'0 0.0
2018-Apr-23 05:59N 34°39' E 135°08'0 0.0
2018-Apr-23 05:30N 34°39' E 135°08'0 0.0
2018-Apr-23 05:01N 34°39' E 135°08'0 0.0
2018-Apr-23 04:30N 34°39' E 135°08'1 1.9
2018-Apr-23 04:01N 34°38' E 135°08'0 0.1
2018-Apr-23 03:30N 34°38' E 135°08'0 0.0
2018-Apr-23 03:01N 34°38' E 135°08'0 0.0
2018-Apr-23 02:30N 34°38' E 135°08'0 0.0
2018-Apr-23 02:00N 34°38' E 135°08'0 0.0
2018-Apr-23 01:29N 34°38' E 135°08'0 0.0
2018-Apr-23 01:00N 34°38' E 135°08'0 0.1
2018-Apr-23 00:30N 34°38' E 135°08'0 0.0
2018-Apr-23 00:01N 34°38' E 135°08'0 0.0
2018-Apr-22 23:31N 34°38' E 135°08'0 0.0
2018-Apr-22 23:01N 34°38' E 135°08'0 0.0
2018-Apr-22 22:31N 34°38' E 135°08'0 0.0
2018-Apr-22 22:01N 34°37' E 135°08'0 0.0
2018-Apr-22 21:30N 34°37' E 135°08'0 0.1
2018-Apr-22 21:00N 34°37' E 135°08'0 0.0
2018-Apr-22 20:31N 34°37' E 135°08'0 0.0
2018-Apr-22 20:00N 34°37' E 135°08'0 0.0
2018-Apr-22 19:30N 34°37' E 135°08'0 0.0
2018-Apr-22 19:00N 34°37' E 135°08'0 0.0
2018-Apr-22 18:31N 34°37' E 135°08'0 0.0
2018-Apr-22 18:00N 34°37' E 135°08'0 0.0
2018-Apr-22 17:28N 34°37' E 135°08'0 0.0
2018-Apr-22 17:01N 34°37' E 135°08'0 0.0
2018-Apr-22 16:31N 34°37' E 135°08'0 0.0
2018-Apr-22 16:00N 34°37' E 135°08'0 0.0
2018-Apr-22 15:30N 34°37' E 135°08'0 0.0
2018-Apr-22 15:00N 34°37' E 135°08'0 0.0
2018-Apr-22 14:31N 34°37' E 135°08'0 0.0
2018-Apr-22 13:59N 34°38' E 135°08'0 0.0
2018-Apr-22 13:30N 34°38' E 135°08'0 0.0
2018-Apr-22 13:01N 34°38' E 135°08'0 0.1
2018-Apr-22 12:30N 34°38' E 135°08'0 0.0
2018-Apr-22 12:00N 34°38' E 135°08'0 0.0
2018-Apr-22 11:30N 34°38' E 135°08'0 0.0
2018-Apr-22 11:00N 34°38' E 135°08'0 0.0
2018-Apr-22 10:30N 34°38' E 135°08'0 0.1
2018-Apr-22 10:00N 34°37' E 135°08'0 0.1
2018-Apr-22 09:31N 34°38' E 135°08'3 5.0
2018-Apr-22 09:00N 34°35' E 135°07'611.1
2018-Apr-22 08:30N 34°30' E 135°05'611.0
2018-Apr-22 08:00N 34°25' E 135°03'611.2
2018-Apr-22 07:31N 34°19' E 135°00'5 9.1
2018-Apr-22 07:00N 34°15' E 135°01'510.9
2018-Apr-22 06:31N 34°11' E 135°05'4 8.4
2018-Apr-22 05:59N 34°07' E 135°08'0 0.0
2018-Apr-22 05:30N 34°07' E 135°08'0 0.0
2018-Apr-22 05:01N 34°07' E 135°08'0 0.0
2018-Apr-22 04:30N 34°07' E 135°08'0 0.0
2018-Apr-22 04:01N 34°07' E 135°08'0 0.0
2018-Apr-22 03:31N 34°07' E 135°08'0 0.2
2018-Apr-22 03:01N 34°07' E 135°08'0 0.8
2018-Apr-22 02:31N 34°07' E 135°07'0 0.9
2018-Apr-22 02:01N 34°08' E 135°07'0 0.0
2018-Apr-22 01:31N 34°08' E 135°07'0 0.1
2018-Apr-22 01:01N 34°08' E 135°07'0 0.1
2018-Apr-22 00:31N 34°08' E 135°07'0 0.0
2018-Apr-22 00:00N 34°08' E 135°07'0 0.0
2018-Apr-21 23:31N 34°08' E 135°07'0 0.0
2018-Apr-21 23:00N 34°08' E 135°07'0 0.0
2018-Apr-21 22:31N 34°08' E 135°07'0 0.0
2018-Apr-21 22:00N 34°08' E 135°07'0 0.1
2018-Apr-21 21:30N 34°08' E 135°07'4 7.5
2018-Apr-21 21:00N 34°06' E 135°03'611.9
2018-Apr-21 20:30N 33°60' E 135°03'611.8
2018-Apr-21 19:58N 33°54' E 135°02'106 9.0
2018-Apr-21 08:12N 34°30' E 137°02'211.6
2018-Apr-21 08:00N 34°32' E 137°02'1011.4
2018-Apr-21 07:09N 34°39' E 136°53'212.0
2018-Apr-21 07:00N 34°40' E 136°51'611.6
2018-Apr-21 06:30N 34°44' E 136°47'611.7
2018-Apr-21 06:00N 34°50' E 136°46'612.4
2018-Apr-21 05:30N 34°56' E 136°46'612.4
2018-Apr-21 05:00N 35°01' E 136°51'3 5.4
2018-Apr-21 04:31N 35°04' E 136°52'0 0.0
2018-Apr-21 04:00N 35°04' E 136°52'0 0.0
2018-Apr-21 03:30N 35°04' E 136°52'0 0.0
2018-Apr-21 03:00N 35°04' E 136°52'0 0.0
2018-Apr-21 02:30N 35°04' E 136°52'0 0.0
2018-Apr-21 02:00N 35°04' E 136°52'0 0.0
2018-Apr-21 01:30N 35°04' E 136°52'0 0.0
2018-Apr-21 01:00N 35°04' E 136°52'3 5.9
2018-Apr-21 00:30N 35°01' E 136°51'510.9
2018-Apr-21 00:00N 34°57' E 136°47'510.8
2018-Apr-20 23:30N 34°51' E 136°46'610.8
2018-Apr-20 22:59N 34°46' E 136°48'511.3
2018-Apr-20 22:30N 34°41' E 136°51'102 7.2
2018-Apr-20 08:20N 33°50' E 135°04'411.5
2018-Apr-20 08:00N 33°53' E 135°01'611.5
2018-Apr-20 07:30N 33°59' E 135°00'611.4
2018-Apr-20 07:00N 34°05' E 134°60'611.6
2018-Apr-20 06:31N 34°11' E 134°59'713.5
2018-Apr-20 06:00N 34°17' E 134°59'611.9
2018-Apr-20 05:30N 34°23' E 135°00'611.8
2018-Apr-20 05:00N 34°26' E 135°07'611.7
2018-Apr-20 04:30N 34°29' E 135°13'611.1
2018-Apr-20 04:00N 34°32' E 135°19'510.8
2018-Apr-20 03:30N 34°33' E 135°25'1 2.1
2018-Apr-20 03:00N 34°34' E 135°26'0 0.0
2018-Apr-20 02:31N 34°34' E 135°26'0 0.0
2018-Apr-20 02:01N 34°34' E 135°26'0 0.0
2018-Apr-20 01:31N 34°34' E 135°26'0 0.0
2018-Apr-20 01:00N 34°34' E 135°26'0 0.0
2018-Apr-20 00:31N 34°34' E 135°26'0 0.0
2018-Apr-19 23:59N 34°34' E 135°26'0 0.1
2018-Apr-19 23:31N 34°33' E 135°26'2 4.9
2018-Apr-19 23:01N 34°33' E 135°23'4 7.5
2018-Apr-19 22:31N 34°33' E 135°19'1 1.7
2018-Apr-19 21:59N 34°33' E 135°18'0 0.0
2018-Apr-19 21:29N 34°33' E 135°18'0 0.1
2018-Apr-19 20:59N 34°33' E 135°17'0 0.0
2018-Apr-19 20:29N 34°33' E 135°17'0 0.0
2018-Apr-19 19:59N 34°33' E 135°17'0 0.6
2018-Apr-19 19:30N 34°33' E 135°17'611.9
2018-Apr-19 19:00N 34°34' E 135°10'612.7
2018-Apr-19 18:30N 34°36' E 135°03'612.7
2018-Apr-19 18:00N 34°36' E 134°55'612.1
2018-Apr-19 17:30N 34°33' E 134°48'611.6
2018-Apr-19 17:00N 34°31' E 134°42'612.3
2018-Apr-19 16:30N 34°28' E 134°35'612.5
2018-Apr-19 16:00N 34°26' E 134°28'612.3
2018-Apr-19 15:30N 34°24' E 134°21'612.1
2018-Apr-19 15:00N 34°24' E 134°14'611.0
2018-Apr-19 14:30N 34°26' E 134°08'510.3
2018-Apr-19 14:00N 34°25' E 134°01'6810.0
2018-Apr-19 07:13N 33°60' E 132°45'210.1
2018-Apr-19 07:00N 33°58' E 132°44'610.0
2018-Apr-19 06:25N 33°54' E 132°38'810.8
2018-Apr-19 05:41N 33°51' E 132°29'1511.3
2018-Apr-19 04:24N 33°49' E 132°12'511.5
2018-Apr-19 03:59N 33°47' E 132°07'5 9.8
2018-Apr-19 03:25N 33°47' E 132°00'712.4
2018-Apr-19 02:53N 33°52' E 131°55'512.5
2018-Apr-19 02:27N 33°55' E 131°49'512.1
2018-Apr-19 02:00N 33°59' E 131°45'4 0.5
2018-Apr-18 17:26N 34°02' E 131°47'0 0.0
2018-Apr-17 22:26N 34°02' E 131°47'0 0.0
2018-Apr-17 19:44N 34°02' E 131°47'0 0.0
2018-Apr-17 18:02N 34°02' E 131°47'0 0.0
2018-Apr-17 17:50N 34°02' E 131°47'0 0.0
2018-Apr-17 17:26N 34°02' E 131°47'0 0.0
2018-Apr-17 16:56N 34°02' E 131°47'0 0.0
2018-Apr-17 16:02N 34°02' E 131°47'0 0.0
2018-Apr-17 15:38N 34°02' E 131°47'0 0.1
2018-Apr-17 14:44N 34°02' E 131°47'0 0.0
2018-Apr-17 10:26N 34°02' E 131°47'0 0.0
2018-Apr-17 09:02N 34°02' E 131°47'0 0.0
2018-Apr-17 08:44N 34°02' E 131°47'0 0.0
2018-Apr-17 04:08N 34°02' E 131°47'0 0.0
2018-Apr-17 00:26N 34°02' E 131°47'0 0.0
2018-Apr-16 23:56N 34°02' E 131°47'0 0.0
2018-Apr-16 22:20N 34°02' E 131°47'0 0.0
2018-Apr-16 21:56N 34°02' E 131°47'0 0.0
2018-Apr-16 20:50N 34°02' E 131°47'0 0.0
2018-Apr-16 18:56N 34°02' E 131°47'0 0.0
2018-Apr-16 17:47N 34°02' E 131°47'0 0.0
2018-Apr-16 17:26N 34°02' E 131°47'0 0.0
2018-Apr-16 16:56N 34°02' E 131°47'0 0.0
2018-Apr-16 16:26N 34°02' E 131°47'0 0.0
2018-Apr-16 15:20N 34°02' E 131°47'0 0.0
2018-Apr-16 13:44N 34°02' E 131°47'0 0.0
2018-Apr-16 12:02N 34°02' E 131°47'0 0.1
2018-Apr-16 11:56N 34°02' E 131°47'0 0.0
2018-Apr-16 04:20N 34°02' E 131°47'0 0.0
2018-Apr-15 22:44N 34°02' E 131°47'0 0.0
2018-Apr-15 19:26N 34°02' E 131°47'0 0.0
2018-Apr-15 14:50N 34°02' E 131°47'1 3.3
2018-Apr-15 14:30N 34°01' E 131°46'5 9.9
2018-Apr-15 14:00N 33°58' E 131°41'612.4
2018-Apr-15 13:30N 33°57' E 131°34'612.3
2018-Apr-15 13:00N 33°55' E 131°27'612.0
2018-Apr-15 12:29N 33°52' E 131°20'511.4
2018-Apr-15 12:00N 33°52' E 131°14'611.7
2018-Apr-15 11:30N 33°54' E 131°07'611.6
2018-Apr-15 11:00N 33°58' E 131°02'4 8.8
2018-Apr-15 10:30N 33°57' E 130°57'4 7.1
2018-Apr-15 10:00N 33°55' E 130°53'611.3
2018-Apr-15 09:30N 33°58' E 130°47'611.8
2018-Apr-15 09:00N 33°57' E 130°40'611.7
2018-Apr-15 08:30N 33°56' E 130°33'510.3
2018-Apr-15 08:00N 33°53' E 130°28'611.3
2018-Apr-15 07:30N 33°49' E 130°23'611.2
2018-Apr-15 07:00N 33°45' E 130°19'5 9.4
2018-Apr-15 06:30N 33°40' E 130°17'611.5
2018-Apr-15 06:00N 33°37' E 130°23'1 2.7
2018-Apr-15 05:30N 33°36' E 130°23'0 0.0
2018-Apr-15 05:00N 33°36' E 130°23'0 0.0
2018-Apr-15 04:30N 33°36' E 130°23'0 0.0
2018-Apr-15 04:00N 33°36' E 130°23'0 0.0
2018-Apr-15 03:30N 33°36' E 130°23'0 0.0
2018-Apr-15 03:00N 33°36' E 130°23'0 0.0
2018-Apr-15 02:30N 33°36' E 130°23'1 1.4
2018-Apr-15 02:00N 33°37' E 130°23'4 7.4
2018-Apr-15 01:30N 33°39' E 130°19'5 9.8
2018-Apr-15 01:00N 33°43' E 130°16'5 9.9
2018-Apr-15 00:30N 33°47' E 130°18'510.1
2018-Apr-15 00:00N 33°52' E 130°20'5 9.9
2018-Apr-14 23:30N 33°56' E 130°23'5 9.5
2018-Apr-14 23:00N 33°58' E 130°28'5 9.6
2018-Apr-14 22:30N 33°58' E 130°34'5 9.8
2018-Apr-14 22:00N 33°58' E 130°40'510.2
2018-Apr-14 21:30N 33°58' E 130°46'5 9.9
2018-Apr-14 21:00N 33°57' E 130°52'3 6.7
2018-Apr-14 20:30N 33°56' E 130°56'4 8.3
2018-Apr-14 20:00N 33°59' E 130°60'510.1
2018-Apr-14 19:30N 33°56' E 131°05'511.0
2018-Apr-14 19:00N 33°53' E 131°10'611.2
2018-Apr-14 18:30N 33°52' E 131°17'510.7
2018-Apr-14 18:00N 33°51' E 131°23'510.4
2018-Apr-14 17:30N 33°49' E 131°29'5 9.9
2018-Apr-14 17:00N 33°48' E 131°35'5 9.6
2018-Apr-14 16:30N 33°47' E 131°41'5 9.4
2018-Apr-14 16:00N 33°46' E 131°46'5 9.6
2018-Apr-14 15:30N 33°45' E 131°52'1610.0
2018-Apr-14 13:53N 33°43' E 132°11'23 9.5
2018-Apr-14 11:27N 33°53' E 132°36'4 9.4
2018-Apr-14 11:00N 33°56' E 132°40'4 8.6
2018-Apr-14 10:30N 33°59' E 132°43'  
Track history (hours):
 
Tides and Currents Weather Stations Pressure Air Temp Water Temp Dewpoint Dewpoint Depression Visibility Wind Speed Wind Dir Waves Ship Positions

Taikeimaru No.5

Last reported at 2018-Apr-23 12:14 UTC. Time now 2018-Apr-25 06:39 UTC.
Position N 34°27' E 134°03'.

Length 77 m; draft 5 m.

Type: Tanker. MMSI: 431300411.

Date/timePositionNaut miles runAvg speedWind from/ knotsBaromVisibWave heightAir tempDewpointWater temp
2018-Apr-23 12:14N 34°27' E 134°03'1410.9
2018-Apr-23 10:57N 34°25' E 134°20'611.9
2018-Apr-23 10:24N 34°27' E 134°28'411.2
2018-Apr-23 10:01N 34°29' E 134°33'611.6
2018-Apr-23 09:30N 34°31' E 134°40'611.8
2018-Apr-23 09:00N 34°33' E 134°46'611.9
2018-Apr-23 08:30N 34°36' E 134°53'611.5
2018-Apr-23 08:00N 34°38' E 134°59'510.8
2018-Apr-23 07:30N 34°36' E 135°06'3 6.2
2018-Apr-23 07:00N 34°39' E 135°08'0 0.0
2018-Apr-23 06:31N 34°39' E 135°08'0 0.0
2018-Apr-23 05:59N 34°39' E 135°08'0 0.0
2018-Apr-23 05:30N 34°39' E 135°08'0 0.0
2018-Apr-23 05:01N 34°39' E 135°08'0 0.0
2018-Apr-23 04:30N 34°39' E 135°08'1 1.9
2018-Apr-23 04:01N 34°38' E 135°08'0 0.1
2018-Apr-23 03:30N 34°38' E 135°08'0 0.0
2018-Apr-23 03:01N 34°38' E 135°08'0 0.0
2018-Apr-23 02:30N 34°38' E 135°08'0 0.0
2018-Apr-23 02:00N 34°38' E 135°08'0 0.0
2018-Apr-23 01:29N 34°38' E 135°08'0 0.0
2018-Apr-23 01:00N 34°38' E 135°08'0 0.1
2018-Apr-23 00:30N 34°38' E 135°08'0 0.0
2018-Apr-23 00:01N 34°38' E 135°08'0 0.0
2018-Apr-22 23:31N 34°38' E 135°08'0 0.0
2018-Apr-22 23:01N 34°38' E 135°08'0 0.0
2018-Apr-22 22:31N 34°38' E 135°08'0 0.0
2018-Apr-22 22:01N 34°37' E 135°08'0 0.0
2018-Apr-22 21:30N 34°37' E 135°08'0 0.1
2018-Apr-22 21:00N 34°37' E 135°08'0 0.0
2018-Apr-22 20:31N 34°37' E 135°08'0 0.0
2018-Apr-22 20:00N 34°37' E 135°08'0 0.0
2018-Apr-22 19:30N 34°37' E 135°08'0 0.0
2018-Apr-22 19:00N 34°37' E 135°08'0 0.0
2018-Apr-22 18:31N 34°37' E 135°08'0 0.0
2018-Apr-22 18:00N 34°37' E 135°08'0 0.0
2018-Apr-22 17:28N 34°37' E 135°08'0 0.0
2018-Apr-22 17:01N 34°37' E 135°08'0 0.0
2018-Apr-22 16:31N 34°37' E 135°08'0 0.0
2018-Apr-22 16:00N 34°37' E 135°08'0 0.0
2018-Apr-22 15:30N 34°37' E 135°08'0 0.0
2018-Apr-22 15:00N 34°37' E 135°08'0 0.0
2018-Apr-22 14:31N 34°37' E 135°08'0 0.0
2018-Apr-22 13:59N 34°38' E 135°08'0 0.0
2018-Apr-22 13:30N 34°38' E 135°08'0 0.0
2018-Apr-22 13:01N 34°38' E 135°08'0 0.1
2018-Apr-22 12:30N 34°38' E 135°08'0 0.0
2018-Apr-22 12:00N 34°38' E 135°08'0 0.0
2018-Apr-22 11:30N 34°38' E 135°08'0 0.0
2018-Apr-22 11:00N 34°38' E 135°08'0 0.0
2018-Apr-22 10:30N 34°38' E 135°08'0 0.1
2018-Apr-22 10:00N 34°37' E 135°08'0 0.1
2018-Apr-22 09:31N 34°38' E 135°08'3 5.0
2018-Apr-22 09:00N 34°35' E 135°07'611.1
2018-Apr-22 08:30N 34°30' E 135°05'611.0
2018-Apr-22 08:00N 34°25' E 135°03'611.2
2018-Apr-22 07:31N 34°19' E 135°00'5 9.1
2018-Apr-22 07:00N 34°15' E 135°01'510.9
2018-Apr-22 06:31N 34°11' E 135°05'4 8.4
2018-Apr-22 05:59N 34°07' E 135°08'0 0.0
2018-Apr-22 05:30N 34°07' E 135°08'0 0.0
2018-Apr-22 05:01N 34°07' E 135°08'0 0.0
2018-Apr-22 04:30N 34°07' E 135°08'0 0.0
2018-Apr-22 04:01N 34°07' E 135°08'0 0.0
2018-Apr-22 03:31N 34°07' E 135°08'0 0.2
2018-Apr-22 03:01N 34°07' E 135°08'0 0.8
2018-Apr-22 02:31N 34°07' E 135°07'0 0.9
2018-Apr-22 02:01N 34°08' E 135°07'0 0.0
2018-Apr-22 01:31N 34°08' E 135°07'0 0.1
2018-Apr-22 01:01N 34°08' E 135°07'0 0.1
2018-Apr-22 00:31N 34°08' E 135°07'0 0.0
2018-Apr-22 00:00N 34°08' E 135°07'0 0.0
2018-Apr-21 23:31N 34°08' E 135°07'0 0.0
2018-Apr-21 23:00N 34°08' E 135°07'0 0.0
2018-Apr-21 22:31N 34°08' E 135°07'0 0.0
2018-Apr-21 22:00N 34°08' E 135°07'0 0.1
2018-Apr-21 21:30N 34°08' E 135°07'4 7.5
2018-Apr-21 21:00N 34°06' E 135°03'611.9
2018-Apr-21 20:30N 33°60' E 135°03'611.8
2018-Apr-21 19:58N 33°54' E 135°02'106 9.0
2018-Apr-21 08:12N 34°30' E 137°02'211.6
2018-Apr-21 08:00N 34°32' E 137°02'1011.4
2018-Apr-21 07:09N 34°39' E 136°53'212.0
2018-Apr-21 07:00N 34°40' E 136°51'611.6
2018-Apr-21 06:30N 34°44' E 136°47'611.7
2018-Apr-21 06:00N 34°50' E 136°46'612.4
2018-Apr-21 05:30N 34°56' E 136°46'612.4
2018-Apr-21 05:00N 35°01' E 136°51'3 5.4
2018-Apr-21 04:31N 35°04' E 136°52'0 0.0
2018-Apr-21 04:00N 35°04' E 136°52'0 0.0
2018-Apr-21 03:30N 35°04' E 136°52'0 0.0
2018-Apr-21 03:00N 35°04' E 136°52'0 0.0
2018-Apr-21 02:30N 35°04' E 136°52'0 0.0
2018-Apr-21 02:00N 35°04' E 136°52'0 0.0
2018-Apr-21 01:30N 35°04' E 136°52'0 0.0
2018-Apr-21 01:00N 35°04' E 136°52'3 5.9
2018-Apr-21 00:30N 35°01' E 136°51'510.9
2018-Apr-21 00:00N 34°57' E 136°47'510.8
2018-Apr-20 23:30N 34°51' E 136°46'610.8
2018-Apr-20 22:59N 34°46' E 136°48'511.3
2018-Apr-20 22:30N 34°41' E 136°51'102 7.2
2018-Apr-20 08:20N 33°50' E 135°04'411.5
2018-Apr-20 08:00N 33°53' E 135°01'611.5
2018-Apr-20 07:30N 33°59' E 135°00'611.4
2018-Apr-20 07:00N 34°05' E 134°60'611.6
2018-Apr-20 06:31N 34°11' E 134°59'713.5
2018-Apr-20 06:00N 34°17' E 134°59'611.9
2018-Apr-20 05:30N 34°23' E 135°00'611.8
2018-Apr-20 05:00N 34°26' E 135°07'611.7
2018-Apr-20 04:30N 34°29' E 135°13'611.1
2018-Apr-20 04:00N 34°32' E 135°19'510.8
2018-Apr-20 03:30N 34°33' E 135°25'1 2.1
2018-Apr-20 03:00N 34°34' E 135°26'0 0.0
2018-Apr-20 02:31N 34°34' E 135°26'0 0.0
2018-Apr-20 02:01N 34°34' E 135°26'0 0.0
2018-Apr-20 01:31N 34°34' E 135°26'0 0.0
2018-Apr-20 01:00N 34°34' E 135°26'0 0.0
2018-Apr-20 00:31N 34°34' E 135°26'0 0.0
2018-Apr-19 23:59N 34°34' E 135°26'0 0.1
2018-Apr-19 23:31N 34°33' E 135°26'2 4.9
2018-Apr-19 23:01N 34°33' E 135°23'4 7.5
2018-Apr-19 22:31N 34°33' E 135°19'1 1.7
2018-Apr-19 21:59N 34°33' E 135°18'0 0.0
2018-Apr-19 21:29N 34°33' E 135°18'0 0.1
2018-Apr-19 20:59N 34°33' E 135°17'0 0.0
2018-Apr-19 20:29N 34°33' E 135°17'0 0.0
2018-Apr-19 19:59N 34°33' E 135°17'0 0.6
2018-Apr-19 19:30N 34°33' E 135°17'611.9
2018-Apr-19 19:00N 34°34' E 135°10'612.7
2018-Apr-19 18:30N 34°36' E 135°03'612.7
2018-Apr-19 18:00N 34°36' E 134°55'612.1
2018-Apr-19 17:30N 34°33' E 134°48'611.6
2018-Apr-19 17:00N 34°31' E 134°42'612.3
2018-Apr-19 16:30N 34°28' E 134°35'612.5
2018-Apr-19 16:00N 34°26' E 134°28'612.3
2018-Apr-19 15:30N 34°24' E 134°21'612.1
2018-Apr-19 15:00N 34°24' E 134°14'611.0
2018-Apr-19 14:30N 34°26' E 134°08'510.3
2018-Apr-19 14:00N 34°25' E 134°01'6810.0
2018-Apr-19 07:13N 33°60' E 132°45'210.1
2018-Apr-19 07:00N 33°58' E 132°44'610.0
2018-Apr-19 06:25N 33°54' E 132°38'810.8
2018-Apr-19 05:41N 33°51' E 132°29'1511.3
2018-Apr-19 04:24N 33°49' E 132°12'511.5
2018-Apr-19 03:59N 33°47' E 132°07'5 9.8
2018-Apr-19 03:25N 33°47' E 132°00'712.4
2018-Apr-19 02:53N 33°52' E 131°55'512.5
2018-Apr-19 02:27N 33°55' E 131°49'512.1
2018-Apr-19 02:00N 33°59' E 131°45'4 0.5
2018-Apr-18 17:26N 34°02' E 131°47'0 0.0
2018-Apr-17 22:26N 34°02' E 131°47'0 0.0
2018-Apr-17 19:44N 34°02' E 131°47'0 0.0
2018-Apr-17 18:02N 34°02' E 131°47'0 0.0
2018-Apr-17 17:50N 34°02' E 131°47'0 0.0
2018-Apr-17 17:26N 34°02' E 131°47'0 0.0
2018-Apr-17 16:56N 34°02' E 131°47'0 0.0
2018-Apr-17 16:02N 34°02' E 131°47'0 0.0
2018-Apr-17 15:38N 34°02' E 131°47'0 0.1
2018-Apr-17 14:44N 34°02' E 131°47'0 0.0
2018-Apr-17 10:26N 34°02' E 131°47'0 0.0
2018-Apr-17 09:02N 34°02' E 131°47'0 0.0
2018-Apr-17 08:44N 34°02' E 131°47'0 0.0
2018-Apr-17 04:08N 34°02' E 131°47'0 0.0
2018-Apr-17 00:26N 34°02' E 131°47'0 0.0
2018-Apr-16 23:56N 34°02' E 131°47'0 0.0
2018-Apr-16 22:20N 34°02' E 131°47'0 0.0
2018-Apr-16 21:56N 34°02' E 131°47'0 0.0
2018-Apr-16 20:50N 34°02' E 131°47'0 0.0
2018-Apr-16 18:56N 34°02' E 131°47'0 0.0
2018-Apr-16 17:47N 34°02' E 131°47'0 0.0
2018-Apr-16 17:26N 34°02' E 131°47'0 0.0
2018-Apr-16 16:56N 34°02' E 131°47'0 0.0
2018-Apr-16 16:26N 34°02' E 131°47'0 0.0
2018-Apr-16 15:20N 34°02' E 131°47'0 0.0
2018-Apr-16 13:44N 34°02' E 131°47'0 0.0
2018-Apr-16 12:02N 34°02' E 131°47'0 0.1
2018-Apr-16 11:56N 34°02' E 131°47'0 0.0
2018-Apr-16 04:20N 34°02' E 131°47'0 0.0
2018-Apr-15 22:44N 34°02' E 131°47'0 0.0
2018-Apr-15 19:26N 34°02' E 131°47'0 0.0
2018-Apr-15 14:50N 34°02' E 131°47'1 3.3
2018-Apr-15 14:30N 34°01' E 131°46'5 9.9
2018-Apr-15 14:00N 33°58' E 131°41'612.4
2018-Apr-15 13:30N 33°57' E 131°34'612.3
2018-Apr-15 13:00N 33°55' E 131°27'612.0
2018-Apr-15 12:29N 33°52' E 131°20'511.4
2018-Apr-15 12:00N 33°52' E 131°14'611.7
2018-Apr-15 11:30N 33°54' E 131°07'611.6
2018-Apr-15 11:00N 33°58' E 131°02'4 8.8
2018-Apr-15 10:30N 33°57' E 130°57'4 7.1
2018-Apr-15 10:00N 33°55' E 130°53'611.3
2018-Apr-15 09:30N 33°58' E 130°47'611.8
2018-Apr-15 09:00N 33°57' E 130°40'611.7
2018-Apr-15 08:30N 33°56' E 130°33'510.3
2018-Apr-15 08:00N 33°53' E 130°28'611.3
2018-Apr-15 07:30N 33°49' E 130°23'611.2
2018-Apr-15 07:00N 33°45' E 130°19'5 9.4
2018-Apr-15 06:30N 33°40' E 130°17'611.5
2018-Apr-15 06:00N 33°37' E 130°23'1 2.7
2018-Apr-15 05:30N 33°36' E 130°23'0 0.0
2018-Apr-15 05:00N 33°36' E 130°23'0 0.0
2018-Apr-15 04:30N 33°36' E 130°23'0 0.0
2018-Apr-15 04:00N 33°36' E 130°23'0 0.0
2018-Apr-15 03:30N 33°36' E 130°23'0 0.0
2018-Apr-15 03:00N 33°36' E 130°23'0 0.0
2018-Apr-15 02:30N 33°36' E 130°23'1 1.4
2018-Apr-15 02:00N 33°37' E 130°23'4 7.4
2018-Apr-15 01:30N 33°39' E 130°19'5 9.8
2018-Apr-15 01:00N 33°43' E 130°16'5 9.9
2018-Apr-15 00:30N 33°47' E 130°18'510.1
2018-Apr-15 00:00N 33°52' E 130°20'5 9.9
2018-Apr-14 23:30N 33°56' E 130°23'5 9.5
2018-Apr-14 23:00N 33°58' E 130°28'5 9.6
2018-Apr-14 22:30N 33°58' E 130°34'5 9.8
2018-Apr-14 22:00N 33°58' E 130°40'510.2
2018-Apr-14 21:30N 33°58' E 130°46'5 9.9
2018-Apr-14 21:00N 33°57' E 130°52'3 6.7
2018-Apr-14 20:30N 33°56' E 130°56'4 8.3
2018-Apr-14 20:00N 33°59' E 130°60'510.1
2018-Apr-14 19:30N 33°56' E 131°05'511.0
2018-Apr-14 19:00N 33°53' E 131°10'611.2
2018-Apr-14 18:30N 33°52' E 131°17'510.7
2018-Apr-14 18:00N 33°51' E 131°23'510.4
2018-Apr-14 17:30N 33°49' E 131°29'5 9.9
2018-Apr-14 17:00N 33°48' E 131°35'5 9.6
2018-Apr-14 16:30N 33°47' E 131°41'5 9.4
2018-Apr-14 16:00N 33°46' E 131°46'5 9.6
2018-Apr-14 15:30N 33°45' E 131°52'1610.0
2018-Apr-14 13:53N 33°43' E 132°11'23 9.5
2018-Apr-14 11:27N 33°53' E 132°36'4 9.4
2018-Apr-14 11:00N 33°56' E 132°40'4 8.6
2018-Apr-14 10:30N 33°59' E 132°43'  

Dump ship's entire track history